sensor_id;sensor_type;location;lat;lon;timestamp;P1;durP1;ratioP1;P2;durP2;ratioP2
3875;SDS011;1953;51.222;6.624;2022-11-20T00:00:40;34.77;;;19.37;;
3875;SDS011;1953;51.222;6.624;2022-11-20T00:08:34;37.20;;;19.87;;
3875;SDS011;1953;51.222;6.624;2022-11-20T00:13:17;36.20;;;19.00;;
3875;SDS011;1953;51.222;6.624;2022-11-20T00:17:59;34.23;;;20.40;;
3875;SDS011;1953;51.222;6.624;2022-11-20T00:22:42;34.70;;;19.50;;
3875;SDS011;1953;51.222;6.624;2022-11-20T00:27:26;35.60;;;20.27;;
3875;SDS011;1953;51.222;6.624;2022-11-20T00:32:08;33.47;;;19.40;;
3875;SDS011;1953;51.222;6.624;2022-11-20T00:36:51;35.20;;;19.17;;
3875;SDS011;1953;51.222;6.624;2022-11-20T00:41:33;35.13;;;20.40;;
3875;SDS011;1953;51.222;6.624;2022-11-20T00:46:18;40.80;;;19.80;;
3875;SDS011;1953;51.222;6.624;2022-11-20T00:51:01;33.27;;;20.07;;
3875;SDS011;1953;51.222;6.624;2022-11-20T00:55:51;33.37;;;19.97;;
3875;SDS011;1953;51.222;6.624;2022-11-20T01:00:34;35.63;;;20.20;;
3875;SDS011;1953;51.222;6.624;2022-11-20T01:05:18;37.70;;;21.07;;
3875;SDS011;1953;51.222;6.624;2022-11-20T01:10:01;37.37;;;20.17;;
3875;SDS011;1953;51.222;6.624;2022-11-20T01:14:44;36.40;;;20.33;;
3875;SDS011;1953;51.222;6.624;2022-11-20T01:19:26;38.00;;;21.00;;
3875;SDS011;1953;51.222;6.624;2022-11-20T01:24:11;38.30;;;21.13;;
3875;SDS011;1953;51.222;6.624;2022-11-20T01:28:55;44.93;;;21.90;;
3875;SDS011;1953;51.222;6.624;2022-11-20T01:33:39;36.17;;;21.73;;
3875;SDS011;1953;51.222;6.624;2022-11-20T01:38:23;52.03;;;21.77;;
3875;SDS011;1953;51.222;6.624;2022-11-20T01:43:10;38.10;;;21.13;;
3875;SDS011;1953;51.222;6.624;2022-11-20T01:48:05;38.63;;;21.67;;
3875;SDS011;1953;51.222;6.624;2022-11-20T01:52:49;37.87;;;22.00;;
3875;SDS011;1953;51.222;6.624;2022-11-20T01:57:35;36.67;;;20.13;;
3875;SDS011;1953;51.222;6.624;2022-11-20T02:02:21;46.77;;;22.10;;
3875;SDS011;1953;51.222;6.624;2022-11-20T02:07:04;36.93;;;21.20;;
3875;SDS011;1953;51.222;6.624;2022-11-20T02:11:47;42.07;;;22.50;;
3875;SDS011;1953;51.222;6.624;2022-11-20T02:16:30;40.20;;;21.67;;
3875;SDS011;1953;51.222;6.624;2022-11-20T02:21:27;33.30;;;20.07;;
3875;SDS011;1953;51.222;6.624;2022-11-20T02:26:16;40.07;;;21.50;;
3875;SDS011;1953;51.222;6.624;2022-11-20T02:31:01;39.40;;;20.87;;
3875;SDS011;1953;51.222;6.624;2022-11-20T02:35:44;37.30;;;21.63;;
3875;SDS011;1953;51.222;6.624;2022-11-20T02:40:28;45.20;;;21.23;;
3875;SDS011;1953;51.222;6.624;2022-11-20T02:45:12;34.90;;;20.00;;
3875;SDS011;1953;51.222;6.624;2022-11-20T02:49:55;40.40;;;21.93;;
3875;SDS011;1953;51.222;6.624;2022-11-20T02:54:38;38.77;;;20.67;;
3875;SDS011;1953;51.222;6.624;2022-11-20T02:59:20;37.67;;;19.57;;
3875;SDS011;1953;51.222;6.624;2022-11-20T03:04:04;37.40;;;21.07;;
3875;SDS011;1953;51.222;6.624;2022-11-20T03:08:47;42.77;;;22.37;;
3875;SDS011;1953;51.222;6.624;2022-11-20T03:13:29;43.27;;;22.30;;
3875;SDS011;1953;51.222;6.624;2022-11-20T03:18:11;36.70;;;20.17;;
3875;SDS011;1953;51.222;6.624;2022-11-20T03:22:56;41.30;;;21.17;;
3875;SDS011;1953;51.222;6.624;2022-11-20T03:27:39;40.40;;;20.87;;
3875;SDS011;1953;51.222;6.624;2022-11-20T03:32:21;41.83;;;22.53;;
3875;SDS011;1953;51.222;6.624;2022-11-20T03:37:04;47.50;;;22.17;;
3875;SDS011;1953;51.222;6.624;2022-11-20T03:41:48;42.97;;;21.73;;
3875;SDS011;1953;51.222;6.624;2022-11-20T03:46:30;38.53;;;21.80;;
3875;SDS011;1953;51.222;6.624;2022-11-20T03:51:14;38.77;;;21.30;;
3875;SDS011;1953;51.222;6.624;2022-11-20T03:55:58;42.70;;;22.20;;
3875;SDS011;1953;51.222;6.624;2022-11-20T04:00:42;50.47;;;22.70;;
3875;SDS011;1953;51.222;6.624;2022-11-20T04:05:24;45.00;;;23.73;;
3875;SDS011;1953;51.222;6.624;2022-11-20T04:10:07;43.43;;;23.77;;
3875;SDS011;1953;51.222;6.624;2022-11-20T04:14:50;46.33;;;24.67;;
3875;SDS011;1953;51.222;6.624;2022-11-20T04:19:34;52.23;;;24.13;;
3875;SDS011;1953;51.222;6.624;2022-11-20T04:24:16;50.33;;;24.50;;
3875;SDS011;1953;51.222;6.624;2022-11-20T04:28:59;52.47;;;27.40;;
3875;SDS011;1953;51.222;6.624;2022-11-20T04:33:42;55.03;;;28.03;;
3875;SDS011;1953;51.222;6.624;2022-11-20T04:38:26;109.33;;;31.00;;
3875;SDS011;1953;51.222;6.624;2022-11-20T04:43:09;50.80;;;27.83;;
3875;SDS011;1953;51.222;6.624;2022-11-20T04:47:51;59.00;;;28.20;;
3875;SDS011;1953;51.222;6.624;2022-11-20T04:52:34;49.13;;;27.47;;
3875;SDS011;1953;51.222;6.624;2022-11-20T04:57:19;48.60;;;27.40;;
3875;SDS011;1953;51.222;6.624;2022-11-20T05:02:01;51.63;;;28.13;;
3875;SDS011;1953;51.222;6.624;2022-11-20T05:06:44;53.33;;;27.43;;
3875;SDS011;1953;51.222;6.624;2022-11-20T05:11:26;50.57;;;27.07;;
3875;SDS011;1953;51.222;6.624;2022-11-20T05:16:12;52.40;;;28.87;;
3875;SDS011;1953;51.222;6.624;2022-11-20T05:20:56;53.30;;;30.13;;
3875;SDS011;1953;51.222;6.624;2022-11-20T05:25:39;55.33;;;30.30;;
3875;SDS011;1953;51.222;6.624;2022-11-20T05:30:22;52.07;;;27.67;;
3875;SDS011;1953;51.222;6.624;2022-11-20T05:35:06;50.63;;;27.40;;
3875;SDS011;1953;51.222;6.624;2022-11-20T05:39:49;58.03;;;30.90;;
3875;SDS011;1953;51.222;6.624;2022-11-20T05:44:32;50.50;;;27.57;;
3875;SDS011;1953;51.222;6.624;2022-11-20T05:49:14;55.10;;;29.33;;
3875;SDS011;1953;51.222;6.624;2022-11-20T05:53:58;50.83;;;28.47;;
3875;SDS011;1953;51.222;6.624;2022-11-20T05:58:41;50.57;;;27.20;;
3875;SDS011;1953;51.222;6.624;2022-11-20T06:03:23;46.47;;;26.90;;
3875;SDS011;1953;51.222;6.624;2022-11-20T06:08:06;55.53;;;28.97;;
3875;SDS011;1953;51.222;6.624;2022-11-20T06:12:49;49.13;;;28.37;;
3875;SDS011;1953;51.222;6.624;2022-11-20T06:17:32;47.93;;;26.67;;
3875;SDS011;1953;51.222;6.624;2022-11-20T06:22:14;51.03;;;26.93;;
3875;SDS011;1953;51.222;6.624;2022-11-20T06:26:57;52.40;;;28.17;;
3875;SDS011;1953;51.222;6.624;2022-11-20T06:31:41;46.83;;;27.43;;
3875;SDS011;1953;51.222;6.624;2022-11-20T06:36:23;52.40;;;27.07;;
3875;SDS011;1953;51.222;6.624;2022-11-20T06:41:06;55.10;;;28.93;;
3875;SDS011;1953;51.222;6.624;2022-11-20T06:45:52;56.40;;;30.80;;
3875;SDS011;1953;51.222;6.624;2022-11-20T06:50:37;49.37;;;28.03;;
3875;SDS011;1953;51.222;6.624;2022-11-20T06:55:19;51.47;;;28.93;;
3875;SDS011;1953;51.222;6.624;2022-11-20T07:00:02;51.97;;;28.57;;
3875;SDS011;1953;51.222;6.624;2022-11-20T07:04:45;48.70;;;27.40;;
3875;SDS011;1953;51.222;6.624;2022-11-20T07:09:29;55.60;;;29.47;;
3875;SDS011;1953;51.222;6.624;2022-11-20T07:14:12;57.03;;;30.20;;
3875;SDS011;1953;51.222;6.624;2022-11-20T07:18:55;54.07;;;29.67;;
3875;SDS011;1953;51.222;6.624;2022-11-20T07:23:38;53.30;;;30.63;;
3875;SDS011;1953;51.222;6.624;2022-11-20T07:28:22;53.47;;;29.27;;
3875;SDS011;1953;51.222;6.624;2022-11-20T07:33:04;57.17;;;31.50;;
3875;SDS011;1953;51.222;6.624;2022-11-20T07:37:47;66.60;;;36.47;;
3875;SDS011;1953;51.222;6.624;2022-11-20T07:42:30;53.37;;;29.50;;
3875;SDS011;1953;51.222;6.624;2022-11-20T07:47:14;50.40;;;29.67;;
3875;SDS011;1953;51.222;6.624;2022-11-20T07:51:56;56.23;;;30.20;;
3875;SDS011;1953;51.222;6.624;2022-11-20T07:56:39;54.50;;;29.53;;
3875;SDS011;1953;51.222;6.624;2022-11-20T08:01:21;54.83;;;29.07;;
3875;SDS011;1953;51.222;6.624;2022-11-20T08:06:05;52.03;;;29.57;;
3875;SDS011;1953;51.222;6.624;2022-11-20T08:10:49;67.50;;;35.07;;
3875;SDS011;1953;51.222;6.624;2022-11-20T08:15:31;54.10;;;28.67;;
3875;SDS011;1953;51.222;6.624;2022-11-20T08:20:14;54.93;;;29.33;;
3875;SDS011;1953;51.222;6.624;2022-11-20T08:24:58;59.87;;;31.27;;
3875;SDS011;1953;51.222;6.624;2022-11-20T08:29:41;59.83;;;34.83;;
3875;SDS011;1953;51.222;6.624;2022-11-20T08:34:24;52.27;;;30.63;;
3875;SDS011;1953;51.222;6.624;2022-11-20T08:39:06;52.10;;;30.30;;
3875;SDS011;1953;51.222;6.624;2022-11-20T08:43:50;60.27;;;33.07;;
3875;SDS011;1953;51.222;6.624;2022-11-20T08:48:34;57.07;;;30.40;;
3875;SDS011;1953;51.222;6.624;2022-11-20T08:53:16;57.57;;;31.87;;
3875;SDS011;1953;51.222;6.624;2022-11-20T08:58:02;56.97;;;29.87;;
3875;SDS011;1953;51.222;6.624;2022-11-20T09:02:46;56.70;;;30.87;;
3875;SDS011;1953;51.222;6.624;2022-11-20T09:07:29;54.20;;;30.60;;
3875;SDS011;1953;51.222;6.624;2022-11-20T09:12:12;49.57;;;27.80;;
3875;SDS011;1953;51.222;6.624;2022-11-20T09:16:54;52.93;;;29.33;;
3875;SDS011;1953;51.222;6.624;2022-11-20T09:21:38;50.60;;;30.23;;
3875;SDS011;1953;51.222;6.624;2022-11-20T09:26:21;47.70;;;26.50;;
3875;SDS011;1953;51.222;6.624;2022-11-20T09:31:04;49.37;;;28.63;;
3875;SDS011;1953;51.222;6.624;2022-11-20T09:35:47;49.97;;;27.30;;
3875;SDS011;1953;51.222;6.624;2022-11-20T09:40:31;48.20;;;27.60;;
3875;SDS011;1953;51.222;6.624;2022-11-20T09:45:18;44.17;;;25.67;;
3875;SDS011;1953;51.222;6.624;2022-11-20T09:50:10;47.23;;;26.70;;
3875;SDS011;1953;51.222;6.624;2022-11-20T09:55:02;53.90;;;27.03;;
3875;SDS011;1953;51.222;6.624;2022-11-20T09:59:48;51.80;;;27.00;;
3875;SDS011;1953;51.222;6.624;2022-11-20T10:04:35;47.97;;;26.13;;
3875;SDS011;1953;51.222;6.624;2022-11-20T10:09:27;53.77;;;28.30;;
3875;SDS011;1953;51.222;6.624;2022-11-20T10:14:16;56.90;;;29.70;;
3875;SDS011;1953;51.222;6.624;2022-11-20T10:19:14;57.33;;;28.93;;
3875;SDS011;1953;51.222;6.624;2022-11-20T10:24:19;66.00;;;31.20;;
3875;SDS011;1953;51.222;6.624;2022-11-20T10:29:20;67.60;;;31.03;;
3875;SDS011;1953;51.222;6.624;2022-11-20T10:34:14;70.43;;;31.80;;
3875;SDS011;1953;51.222;6.624;2022-11-20T10:39:03;85.27;;;31.53;;
3875;SDS011;1953;51.222;6.624;2022-11-20T10:43:52;56.20;;;28.93;;
3875;SDS011;1953;51.222;6.624;2022-11-20T10:48:41;60.70;;;28.83;;
3875;SDS011;1953;51.222;6.624;2022-11-20T10:53:34;56.10;;;26.17;;
3875;SDS011;1953;51.222;6.624;2022-11-20T10:58:29;63.33;;;29.83;;
3875;SDS011;1953;51.222;6.624;2022-11-20T11:03:22;57.00;;;26.20;;
3875;SDS011;1953;51.222;6.624;2022-11-20T11:08:10;48.60;;;25.57;;
3875;SDS011;1953;51.222;6.624;2022-11-20T11:12:57;54.23;;;25.60;;
3875;SDS011;1953;51.222;6.624;2022-11-20T11:17:46;50.53;;;24.70;;
3875;SDS011;1953;51.222;6.624;2022-11-20T11:22:29;48.17;;;25.23;;
3875;SDS011;1953;51.222;6.624;2022-11-20T11:27:13;42.40;;;22.90;;
3875;SDS011;1953;51.222;6.624;2022-11-20T11:32:06;46.27;;;24.07;;
3875;SDS011;1953;51.222;6.624;2022-11-20T11:36:51;46.47;;;23.20;;
3875;SDS011;1953;51.222;6.624;2022-11-20T11:41:37;45.70;;;23.70;;
3875;SDS011;1953;51.222;6.624;2022-11-20T11:46:24;44.13;;;22.37;;
3875;SDS011;1953;51.222;6.624;2022-11-20T11:51:13;37.43;;;21.07;;
3875;SDS011;1953;51.222;6.624;2022-11-20T11:56:02;39.40;;;21.20;;
3875;SDS011;1953;51.222;6.624;2022-11-20T12:00:51;39.30;;;21.00;;
3875;SDS011;1953;51.222;6.624;2022-11-20T12:09:35;38.07;;;21.40;;
3875;SDS011;1953;51.222;6.624;2022-11-20T12:14:25;40.13;;;20.87;;
3875;SDS011;1953;51.222;6.624;2022-11-20T12:19:13;39.13;;;22.07;;
3875;SDS011;1953;51.222;6.624;2022-11-20T12:24:00;37.17;;;21.23;;
3875;SDS011;1953;51.222;6.624;2022-11-20T12:28:59;41.87;;;21.73;;
3875;SDS011;1953;51.222;6.624;2022-11-20T12:33:54;41.20;;;21.77;;
3875;SDS011;1953;51.222;6.624;2022-11-20T12:38:57;38.30;;;22.60;;
3875;SDS011;1953;51.222;6.624;2022-11-20T12:44:01;42.20;;;22.80;;
3875;SDS011;1953;51.222;6.624;2022-11-20T12:49:11;48.00;;;23.53;;
3875;SDS011;1953;51.222;6.624;2022-11-20T12:54:06;42.20;;;23.57;;
3875;SDS011;1953;51.222;6.624;2022-11-20T12:59:14;49.40;;;25.30;;
3875;SDS011;1953;51.222;6.624;2022-11-20T13:04:16;56.20;;;30.00;;
3875;SDS011;1953;51.222;6.624;2022-11-20T13:09:15;44.63;;;24.23;;
3875;SDS011;1953;51.222;6.624;2022-11-20T13:14:04;45.03;;;24.77;;
3875;SDS011;1953;51.222;6.624;2022-11-20T13:19:00;41.50;;;22.87;;
3875;SDS011;1953;51.222;6.624;2022-11-20T13:23:43;40.40;;;23.03;;
3875;SDS011;1953;51.222;6.624;2022-11-20T13:28:27;49.27;;;27.10;;
3875;SDS011;1953;51.222;6.624;2022-11-20T13:33:22;50.07;;;26.00;;
3875;SDS011;1953;51.222;6.624;2022-11-20T13:38:08;47.23;;;25.07;;
3875;SDS011;1953;51.222;6.624;2022-11-20T13:42:55;48.53;;;25.70;;
3875;SDS011;1953;51.222;6.624;2022-11-20T13:47:47;47.70;;;24.90;;
3875;SDS011;1953;51.222;6.624;2022-11-20T13:52:37;52.13;;;25.77;;
3875;SDS011;1953;51.222;6.624;2022-11-20T13:57:35;54.40;;;25.47;;
3875;SDS011;1953;51.222;6.624;2022-11-20T14:02:29;49.33;;;26.53;;
3875;SDS011;1953;51.222;6.624;2022-11-20T14:07:12;49.03;;;26.00;;
3875;SDS011;1953;51.222;6.624;2022-11-20T14:11:56;48.87;;;25.90;;
3875;SDS011;1953;51.222;6.624;2022-11-20T14:16:38;49.17;;;25.53;;
3875;SDS011;1953;51.222;6.624;2022-11-20T14:21:22;49.87;;;25.57;;
3875;SDS011;1953;51.222;6.624;2022-11-20T14:26:05;48.63;;;26.20;;
3875;SDS011;1953;51.222;6.624;2022-11-20T14:31:02;51.00;;;25.20;;
3875;SDS011;1953;51.222;6.624;2022-11-20T14:35:45;47.77;;;26.27;;
3875;SDS011;1953;51.222;6.624;2022-11-20T14:40:30;49.10;;;25.27;;
3875;SDS011;1953;51.222;6.624;2022-11-20T14:45:15;50.50;;;26.67;;
3875;SDS011;1953;51.222;6.624;2022-11-20T14:50:00;53.70;;;27.50;;
3875;SDS011;1953;51.222;6.624;2022-11-20T14:54:43;49.40;;;26.50;;
3875;SDS011;1953;51.222;6.624;2022-11-20T14:59:28;48.93;;;24.60;;
3875;SDS011;1953;51.222;6.624;2022-11-20T15:04:11;46.23;;;26.10;;
3875;SDS011;1953;51.222;6.624;2022-11-20T15:08:55;51.57;;;25.00;;
3875;SDS011;1953;51.222;6.624;2022-11-20T15:13:38;43.43;;;23.50;;
3875;SDS011;1953;51.222;6.624;2022-11-20T15:18:21;47.93;;;23.90;;
3875;SDS011;1953;51.222;6.624;2022-11-20T15:23:09;42.80;;;23.93;;
3875;SDS011;1953;51.222;6.624;2022-11-20T15:27:55;52.17;;;26.23;;
3875;SDS011;1953;51.222;6.624;2022-11-20T15:32:38;41.60;;;22.20;;
3875;SDS011;1953;51.222;6.624;2022-11-20T15:37:21;47.67;;;23.83;;
3875;SDS011;1953;51.222;6.624;2022-11-20T15:42:03;44.53;;;24.47;;
3875;SDS011;1953;51.222;6.624;2022-11-20T15:46:47;51.20;;;26.33;;
3875;SDS011;1953;51.222;6.624;2022-11-20T15:51:30;48.90;;;25.20;;
3875;SDS011;1953;51.222;6.624;2022-11-20T15:56:15;49.60;;;25.90;;
3875;SDS011;1953;51.222;6.624;2022-11-20T16:00:58;56.10;;;24.97;;
3875;SDS011;1953;51.222;6.624;2022-11-20T16:05:42;49.23;;;24.53;;
3875;SDS011;1953;51.222;6.624;2022-11-20T16:10:25;46.90;;;24.03;;
3875;SDS011;1953;51.222;6.624;2022-11-20T16:15:08;48.53;;;24.50;;
3875;SDS011;1953;51.222;6.624;2022-11-20T16:20:10;58.90;;;26.80;;
3875;SDS011;1953;51.222;6.624;2022-11-20T16:24:54;50.13;;;25.80;;
3875;SDS011;1953;51.222;6.624;2022-11-20T16:29:36;52.93;;;25.30;;
3875;SDS011;1953;51.222;6.624;2022-11-20T16:34:19;49.60;;;25.07;;
3875;SDS011;1953;51.222;6.624;2022-11-20T16:39:02;49.13;;;25.33;;
3875;SDS011;1953;51.222;6.624;2022-11-20T16:43:47;51.90;;;24.67;;
3875;SDS011;1953;51.222;6.624;2022-11-20T16:48:31;53.80;;;25.00;;
3875;SDS011;1953;51.222;6.624;2022-11-20T16:53:13;56.10;;;25.17;;
3875;SDS011;1953;51.222;6.624;2022-11-20T16:57:56;49.13;;;25.03;;
3875;SDS011;1953;51.222;6.624;2022-11-20T17:02:40;44.23;;;21.67;;
3875;SDS011;1953;51.222;6.624;2022-11-20T17:07:22;43.93;;;22.37;;
3875;SDS011;1953;51.222;6.624;2022-11-20T17:12:05;45.23;;;22.00;;
3875;SDS011;1953;51.222;6.624;2022-11-20T17:16:47;39.83;;;17.80;;
3875;SDS011;1953;51.222;6.624;2022-11-20T17:21:31;35.37;;;17.33;;
3875;SDS011;1953;51.222;6.624;2022-11-20T17:26:16;31.23;;;16.60;;
3875;SDS011;1953;51.222;6.624;2022-11-20T17:31:01;34.17;;;17.17;;
3875;SDS011;1953;51.222;6.624;2022-11-20T17:35:46;31.63;;;16.30;;
3875;SDS011;1953;51.222;6.624;2022-11-20T17:40:30;30.53;;;16.60;;
3875;SDS011;1953;51.222;6.624;2022-11-20T17:45:13;28.43;;;15.50;;
3875;SDS011;1953;51.222;6.624;2022-11-20T17:49:55;37.23;;;16.60;;
3875;SDS011;1953;51.222;6.624;2022-11-20T17:54:38;27.40;;;14.90;;
3875;SDS011;1953;51.222;6.624;2022-11-20T17:59:21;28.43;;;14.10;;
3875;SDS011;1953;51.222;6.624;2022-11-20T18:04:04;22.57;;;13.30;;
3875;SDS011;1953;51.222;6.624;2022-11-20T18:08:47;26.80;;;14.10;;
3875;SDS011;1953;51.222;6.624;2022-11-20T18:13:30;24.37;;;15.07;;
3875;SDS011;1953;51.222;6.624;2022-11-20T18:18:34;25.80;;;15.10;;
3875;SDS011;1953;51.222;6.624;2022-11-20T18:23:16;30.93;;;17.50;;
3875;SDS011;1953;51.222;6.624;2022-11-20T18:27:58;27.27;;;15.63;;
3875;SDS011;1953;51.222;6.624;2022-11-20T18:32:41;20.87;;;11.63;;
3875;SDS011;1953;51.222;6.624;2022-11-20T18:37:25;20.10;;;11.53;;
3875;SDS011;1953;51.222;6.624;2022-11-20T18:42:09;16.80;;;10.27;;
3875;SDS011;1953;51.222;6.624;2022-11-20T18:47:10;15.53;;;10.37;;
3875;SDS011;1953;51.222;6.624;2022-11-20T18:51:54;16.43;;;10.53;;
3875;SDS011;1953;51.222;6.624;2022-11-20T18:56:38;23.43;;;12.30;;
3875;SDS011;1953;51.222;6.624;2022-11-20T19:01:21;23.67;;;11.17;;
3875;SDS011;1953;51.222;6.624;2022-11-20T19:06:03;28.63;;;11.00;;
3875;SDS011;1953;51.222;6.624;2022-11-20T19:10:46;17.00;;;8.83;;
3875;SDS011;1953;51.222;6.624;2022-11-20T19:15:29;16.77;;;7.87;;
3875;SDS011;1953;51.222;6.624;2022-11-20T19:20:15;25.20;;;7.43;;
3875;SDS011;1953;51.222;6.624;2022-11-20T19:24:58;13.10;;;6.37;;
3875;SDS011;1953;51.222;6.624;2022-11-20T19:29:41;15.23;;;7.50;;
3875;SDS011;1953;51.222;6.624;2022-11-20T19:34:24;21.73;;;6.60;;
3875;SDS011;1953;51.222;6.624;2022-11-20T19:39:08;17.83;;;7.90;;
3875;SDS011;1953;51.222;6.624;2022-11-20T19:43:51;12.13;;;4.90;;
3875;SDS011;1953;51.222;6.624;2022-11-20T19:48:34;20.37;;;7.00;;
3875;SDS011;1953;51.222;6.624;2022-11-20T19:53:19;16.47;;;6.50;;
3875;SDS011;1953;51.222;6.624;2022-11-20T19:58:01;24.73;;;8.03;;
3875;SDS011;1953;51.222;6.624;2022-11-20T20:02:43;20.93;;;7.80;;
3875;SDS011;1953;51.222;6.624;2022-11-20T20:07:26;18.20;;;6.23;;
3875;SDS011;1953;51.222;6.624;2022-11-20T20:12:10;15.13;;;6.80;;
3875;SDS011;1953;51.222;6.624;2022-11-20T20:16:52;20.07;;;8.63;;
3875;SDS011;1953;51.222;6.624;2022-11-20T20:21:34;18.43;;;7.50;;
3875;SDS011;1953;51.222;6.624;2022-11-20T20:26:17;18.97;;;7.00;;
3875;SDS011;1953;51.222;6.624;2022-11-20T20:31:06;20.13;;;7.70;;
3875;SDS011;1953;51.222;6.624;2022-11-20T20:35:49;16.10;;;6.60;;
3875;SDS011;1953;51.222;6.624;2022-11-20T20:40:31;18.17;;;7.97;;
3875;SDS011;1953;51.222;6.624;2022-11-20T20:45:14;26.50;;;9.23;;
3875;SDS011;1953;51.222;6.624;2022-11-20T20:49:58;23.23;;;10.37;;
3875;SDS011;1953;51.222;6.624;2022-11-20T20:54:40;25.53;;;9.00;;
3875;SDS011;1953;51.222;6.624;2022-11-20T20:59:23;13.43;;;6.67;;
3875;SDS011;1953;51.222;6.624;2022-11-20T21:04:05;22.10;;;8.47;;
3875;SDS011;1953;51.222;6.624;2022-11-20T21:08:49;15.07;;;7.10;;
3875;SDS011;1953;51.222;6.624;2022-11-20T21:13:32;16.10;;;7.80;;
3875;SDS011;1953;51.222;6.624;2022-11-20T21:18:15;24.20;;;8.20;;
3875;SDS011;1953;51.222;6.624;2022-11-20T21:22:58;20.83;;;8.07;;
3875;SDS011;1953;51.222;6.624;2022-11-20T21:27:42;25.73;;;8.50;;
3875;SDS011;1953;51.222;6.624;2022-11-20T21:32:24;20.10;;;7.77;;
3875;SDS011;1953;51.222;6.624;2022-11-20T21:37:07;22.13;;;7.07;;
3875;SDS011;1953;51.222;6.624;2022-11-20T21:41:49;20.13;;;7.50;;
3875;SDS011;1953;51.222;6.624;2022-11-20T21:46:33;15.87;;;6.60;;
3875;SDS011;1953;51.222;6.624;2022-11-20T21:51:20;26.13;;;6.27;;
3875;SDS011;1953;51.222;6.624;2022-11-20T21:56:03;19.10;;;5.20;;
3875;SDS011;1953;51.222;6.624;2022-11-20T22:00:46;9.57;;;4.20;;
3875;SDS011;1953;51.222;6.624;2022-11-20T22:05:30;19.00;;;6.60;;
3875;SDS011;1953;51.222;6.624;2022-11-20T22:10:13;17.83;;;5.70;;
3875;SDS011;1953;51.222;6.624;2022-11-20T22:14:55;11.93;;;4.50;;
3875;SDS011;1953;51.222;6.624;2022-11-20T22:19:37;14.57;;;5.27;;
3875;SDS011;1953;51.222;6.624;2022-11-20T22:24:21;16.87;;;5.23;;
3875;SDS011;1953;51.222;6.624;2022-11-20T22:29:04;15.53;;;6.10;;
3875;SDS011;1953;51.222;6.624;2022-11-20T22:33:47;15.33;;;7.47;;
3875;SDS011;1953;51.222;6.624;2022-11-20T22:38:30;25.40;;;6.80;;
3875;SDS011;1953;51.222;6.624;2022-11-20T22:43:14;21.23;;;4.77;;
3875;SDS011;1953;51.222;6.624;2022-11-20T22:47:57;16.70;;;5.67;;
3875;SDS011;1953;51.222;6.624;2022-11-20T22:52:39;15.07;;;5.80;;
3875;SDS011;1953;51.222;6.624;2022-11-20T22:57:22;9.23;;;4.30;;
3875;SDS011;1953;51.222;6.624;2022-11-20T23:02:06;17.97;;;5.50;;
3875;SDS011;1953;51.222;6.624;2022-11-20T23:06:48;15.10;;;6.77;;
3875;SDS011;1953;51.222;6.624;2022-11-20T23:11:31;24.63;;;7.20;;
3875;SDS011;1953;51.222;6.624;2022-11-20T23:16:14;22.20;;;8.37;;
3875;SDS011;1953;51.222;6.624;2022-11-20T23:21:03;17.43;;;8.07;;
3875;SDS011;1953;51.222;6.624;2022-11-20T23:25:46;20.53;;;6.50;;
3875;SDS011;1953;51.222;6.624;2022-11-20T23:30:28;24.17;;;7.90;;
3875;SDS011;1953;51.222;6.624;2022-11-20T23:35:11;27.33;;;8.87;;
3875;SDS011;1953;51.222;6.624;2022-11-20T23:39:55;25.30;;;8.13;;
3875;SDS011;1953;51.222;6.624;2022-11-20T23:44:37;23.60;;;7.47;;
3875;SDS011;1953;51.222;6.624;2022-11-20T23:49:19;20.93;;;7.20;;
3875;SDS011;1953;51.222;6.624;2022-11-20T23:54:02;10.03;;;4.30;;
3875;SDS011;1953;51.222;6.624;2022-11-20T23:58:46;22.23;;;5.77;;
